| time (UTC) | temp C | wind direction | speed KPH | gust KPH | rain 1hr cm | rain 24hr cm | rain mn cm | humidity % | barometer mb |
| 20260503183002 | 15 | 0.0 | 0.0 | 0.00 | 0.00 | 0.00 | 31 | 974.0 | |
| 20260503182507 | 16 | 0.0 | 0.0 | 0.00 | 0.00 | 0.00 | 29 | 974.0 | |
| 20260503182006 | 16 | 0.0 | 0.0 | 0.00 | 0.00 | 0.00 | 28 | 974.0 | |
| 20260503181506 | 17 | 0.0 | 0.0 | 0.00 | 0.00 | 0.00 | 27 | 974.0 | |
| 20260503181005 | 17 | 0.0 | 0.0 | 0.00 | 0.00 | 0.00 | 27 | 974.0 | |
| 20260503180504 | 18 | 0.0 | 0.0 | 0.00 | 0.00 | 0.00 | 26 | 974.0 | |
| 20260503180008 | 18 | 0.0 | 0.0 | 0.00 | 0.00 | 0.00 | 25 | 974.0 | |
| 20260503175503 | 18 | 0.0 | 0.0 | 0.00 | 0.00 | 0.00 | 24 | 974.0 | |
| 20260503175003 | 18 | 0.0 | 0.0 | 0.00 | 0.00 | 0.00 | 24 | 974.0 | |
| 20260503174502 | 19 | 0.0 | 0.0 | 0.00 | 0.00 | 0.00 | 23 | 974.0 | |
| 20260503174002 | 19 | 0.0 | 0.0 | 0.00 | 0.00 | 0.00 | 23 | 974.0 | |
| 20260503173506 | 20 | 0.0 | 0.0 | 0.00 | 0.00 | 0.00 | 23 | 974.0 | |
| 20260503173006 | 20 | 0.0 | 0.0 | 0.00 | 0.00 | 0.00 | 23 | 974.0 | |
| 20260503172505 | 20 | 0.0 | 0.0 | 0.00 | 0.00 | 0.00 | 22 | 974.0 | |
| 20260503172005 | 20 | 0.0 | 0.0 | 0.00 | 0.00 | 0.00 | 22 | 974.0 | |
| 20260503171504 | 20 | 0.0 | 0.0 | 0.00 | 0.00 | 0.00 | 22 | 974.0 | |
| 20260503171004 | 20 | 0.0 | 0.0 | 0.00 | 0.00 | 0.00 | 21 | 974.0 | |
| 20260503170503 | 21 | 0.0 | 0.0 | 0.00 | 0.00 | 0.00 | 21 | 974.0 | |
| 20260503151006 | 22 | 0.0 | 0.0 | 0.00 | 0.00 | 0.00 | 19 | 975.0 | |
| 20260503150506 | 22 | 0.0 | 0.0 | 0.00 | 0.00 | 0.00 | 19 | 975.0 | |
| 20260503131004 | 22 | 0.0 | 0.0 | 0.00 | 0.00 | 0.00 | 21 | 976.0 | |
| 20260503130504 | 21 | 0.0 | 0.0 | 0.00 | 0.00 | 0.00 | 21 | 976.0 | |
| 20260503110502 | 20 | 0.0 | 0.0 | 0.00 | 0.00 | 0.00 | 24 | 977.0 | |
| 20260503090506 | 18 | 0.0 | 0.0 | 0.00 | 0.00 | 0.00 | 26 | 978.0 | |
| 20260503081504 | 20 | 0.0 | 0.0 | 0.00 | 0.00 | 0.00 | 26 | 978.0 | |
| 20260503081004 | 20 | 0.0 | 0.0 | 0.00 | 0.00 | 0.00 | 25 | 978.0 | |
| 20260503080503 | 21 | 0.0 | 0.0 | 0.00 | 0.00 | 0.00 | 25 | 978.0 | |
| 20260503072504 | 21 | 0.0 | 0.0 | 0.00 | 0.00 | 0.00 | 27 | 978.0 | |
| 20260503072004 | 21 | 0.0 | 0.0 | 0.00 | 0.00 | 0.00 | 27 | 978.0 | |
| 20260503071503 | 21 | 0.0 | 0.0 | 0.00 | 0.00 | 0.00 | 27 | 978.0 | |
| 20260503071003 | 20 | 0.0 | 0.0 | 0.00 | 0.00 | 0.00 | 27 | 978.0 | |
| 20260503070503 | 20 | 0.0 | 0.0 | 0.00 | 0.00 | 0.00 | 27 | 978.0 | |
| 20260503055005 | 12 | 0.0 | 0.0 | 0.00 | 0.00 | 0.00 | 40 | 979.0 | |
| 20260503054504 | 12 | 0.0 | 0.0 | 0.00 | 0.00 | 0.00 | 42 | 979.0 | |
| 20260503054004 | 11 | 0.0 | 0.0 | 0.00 | 0.00 | 0.00 | 42 | 979.0 | |
| 20260503053503 | 11 | 0.0 | 0.0 | 0.00 | 0.00 | 0.00 | 43 | 979.0 | |
| 20260503053003 | 11 | 0.0 | 0.0 | 0.00 | 0.00 | 0.00 | 44 | 979.0 | |
| 20260503052502 | 10 | 0.0 | 0.0 | 0.00 | 0.00 | 0.00 | 46 | 979.0 | |
| 20260503052002 | 10 | 0.0 | 0.0 | 0.00 | 0.00 | 0.00 | 46 | 979.0 | |
| 20260503051506 | 10 | 0.0 | 0.0 | 0.00 | 0.00 | 0.00 | 48 | 979.0 | |
| 20260503051006 | 10 | 0.0 | 0.0 | 0.00 | 0.00 | 0.00 | 49 | 979.0 | |
| 20260503050505 | 8 | 0.0 | 0.0 | 0.00 | 0.00 | 0.00 | 51 | 979.0 | |
| 20260503050008 | 8 | 0.0 | 0.0 | 0.00 | 0.00 | 0.00 | 53 | 979.0 | |
| 20260503045504 | 7 | 0.0 | 0.0 | 0.00 | 0.00 | 0.00 | 55 | 979.0 | |
| 20260503045004 | 6 | 0.0 | 0.0 | 0.00 | 0.00 | 0.00 | 57 | 979.0 | |
| 20260503044503 | 6 | 0.0 | 0.0 | 0.00 | 0.00 | 0.00 | 59 | 979.0 | |
| 20260503044002 | 5 | 0.0 | 0.0 | 0.00 | 0.00 | 0.00 | 61 | 979.0 | |
| 20260503043502 | 4 | 0.0 | 0.0 | 0.00 | 0.00 | 0.00 | 62 | 979.0 | |
| 20260503043007 | 3 | 0.0 | 0.0 | 0.00 | 0.00 | 0.00 | 63 | 979.0 | |
| 20260503042506 | 3 | 0.0 | 0.0 | 0.00 | 0.00 | 0.00 | 63 | 979.0 | |
| 20260503042006 | 3 | 0.0 | 0.0 | 0.00 | 0.00 | 0.00 | 63 | 979.0 | |
| 20260503041505 | 3 | 0.0 | 0.0 | 0.00 | 0.00 | 0.00 | 62 | 979.0 | |
| 20260503041004 | 3 | 0.0 | 0.0 | 0.00 | 0.00 | 0.00 | 62 | 979.0 | |
| 20260503040504 | 3 | 0.0 | 0.0 | 0.00 | 0.00 | 0.00 | 62 | 979.0 | |
| 20260503040007 | 3 | 0.0 | 0.0 | 0.00 | 0.00 | 0.00 | 62 | 979.0 | |
| 20260503035503 | 3 | 0.0 | 0.0 | 0.00 | 0.00 | 0.00 | 62 | 979.0 | |
| 20260503035002 | 3 | 0.0 | 0.0 | 0.00 | 0.00 | 0.00 | 62 | 979.0 | |
| 20260503034502 | 3 | 0.0 | 0.0 | 0.00 | 0.00 | 0.00 | 62 | 979.0 | |
| 20260503034006 | 3 | 0.0 | 0.0 | 0.00 | 0.00 | 0.00 | 62 | 979.0 | |
| 20260503033506 | 3 | 0.0 | 0.0 | 0.00 | 0.00 | 0.00 | 62 | 979.0 | |
| 20260503033005 | 3 | 0.0 | 0.0 | 0.00 | 0.00 | 0.00 | 62 | 979.0 | |
| 20260503032505 | 3 | 0.0 | 0.0 | 0.00 | 0.00 | 0.00 | 62 | 979.0 | |
| 20260503032004 | 3 | 0.0 | 0.0 | 0.00 | 0.00 | 0.00 | 62 | 978.0 | |
| 20260503031504 | 3 | 0.0 | 0.0 | 0.00 | 0.00 | 0.00 | 62 | 978.0 | |
| 20260503031004 | 3 | 0.0 | 0.0 | 0.00 | 0.00 | 0.00 | 62 | 978.0 | |
| 20260503030503 | 3 | 0.0 | 0.0 | 0.00 | 0.00 | 0.00 | 62 | 978.0 | |
| 20260503030006 | 3 | 0.0 | 0.0 | 0.00 | 0.00 | 0.00 | 62 | 978.0 | |
| 20260503025502 | 3 | 0.0 | 0.0 | 0.00 | 0.00 | 0.00 | 61 | 978.0 | |
| 20260503025006 | 3 | 0.0 | 0.0 | 0.00 | 0.00 | 0.00 | 61 | 978.0 | |
| 20260503024506 | 4 | 0.0 | 0.0 | 0.00 | 0.00 | 0.00 | 61 | 978.0 | |
| 20260503024005 | 4 | 0.0 | 0.0 | 0.00 | 0.00 | 0.00 | 62 | 978.0 | |
| 20260503023505 | 4 | 0.0 | 0.0 | 0.00 | 0.00 | 0.00 | 62 | 978.0 | |
| 20260503023005 | 4 | 0.0 | 0.0 | 0.00 | 0.00 | 0.00 | 62 | 978.0 | |
| 20260503022504 | 4 | 0.0 | 0.0 | 0.00 | 0.00 | 0.00 | 62 | 978.0 | |
| 20260503022003 | 4 | 0.0 | 0.0 | 0.00 | 0.00 | 0.00 | 61 | 978.0 | |
| 20260503021505 | 4 | 0.0 | 0.0 | 0.00 | 0.00 | 0.00 | 61 | 978.0 | |
| 20260503021003 | 4 | 0.0 | 0.0 | 0.00 | 0.00 | 0.00 | 62 | 978.0 | |
| 20260503020502 | 5 | 0.0 | 0.0 | 0.00 | 0.00 | 0.00 | 61 | 978.0 | |
| 20260503020011 | 5 | 0.0 | 0.0 | 0.00 | 0.00 | 0.00 | 61 | 978.0 | |
| 20260503015506 | 5 | 0.0 | 0.0 | 0.00 | 0.00 | 0.00 | 61 | 978.0 | |
| 20260503015006 | 5 | 0.0 | 0.0 | 0.00 | 0.00 | 0.00 | 61 | 978.0 | |
| 20260503014505 | 5 | 0.0 | 0.0 | 0.00 | 0.00 | 0.00 | 61 | 978.0 | |
| 20260503014005 | 5 | 0.0 | 0.0 | 0.00 | 0.00 | 0.00 | 61 | 978.0 | |
| 20260503013504 | 5 | 0.0 | 0.0 | 0.00 | 0.00 | 0.00 | 60 | 978.0 | |
| 20260503013004 | 5 | 0.0 | 0.0 | 0.00 | 0.00 | 0.00 | 60 | 978.0 | |
| 20260503012503 | 5 | 0.0 | 0.0 | 0.00 | 0.00 | 0.00 | 60 | 978.0 | |
| 20260503012002 | 5 | 0.0 | 0.0 | 0.00 | 0.00 | 0.00 | 59 | 978.0 | |
| 20260503011502 | 5 | 0.0 | 0.0 | 0.00 | 0.00 | 0.00 | 60 | 978.0 | |
| 20260503011006 | 5 | 0.0 | 0.0 | 0.00 | 0.00 | 0.00 | 60 | 978.0 | |
| 20260503010506 | 5 | 0.0 | 0.0 | 0.00 | 0.00 | 0.00 | 60 | 978.0 | |
| 20260503010010 | 5 | 0.0 | 0.0 | 0.00 | 0.00 | 0.00 | 59 | 978.0 | |
| 20260503005505 | 5 | 0.0 | 0.0 | 0.00 | 0.00 | 0.00 | 59 | 978.0 | |
| 20260503005004 | 5 | 0.0 | 0.0 | 0.00 | 0.00 | 0.00 | 59 | 978.0 | |
| 20260503004504 | 5 | 0.0 | 0.0 | 0.00 | 0.00 | 0.00 | 59 | 978.0 | |
| 20260503004003 | 5 | 0.0 | 0.0 | 0.00 | 0.00 | 0.00 | 59 | 978.0 | |
| 20260503003503 | 6 | 0.0 | 0.0 | 0.00 | 0.00 | 0.00 | 59 | 978.0 | |
| 20260503003003 | 6 | 0.0 | 0.0 | 0.00 | 0.00 | 0.00 | 59 | 978.0 | |
| 20260503002502 | 6 | 0.0 | 0.0 | 0.00 | 0.00 | 0.00 | 59 | 978.0 | |
| 20260503002007 | 6 | 0.0 | 0.0 | 0.00 | 0.00 | 0.00 | 59 | 978.0 | |
| 20260503001506 | 6 | 0.0 | 0.0 | 0.00 | 0.00 | 0.00 | 59 | 978.0 | |
| 20260503001006 | 6 | 0.0 | 0.0 | 0.00 | 0.00 | 0.00 | 58 | 978.0 | |
| 20260503000505 | 6 | 0.0 | 0.0 | 0.00 | 0.00 | 0.00 | 58 | 978.0 | |
| 20260503000020 | 6 | 0.0 | 0.0 | 0.00 | 0.00 | 0.00 | 58 | 978.0 | |
| 20260502235504 | 6 | 0.0 | 0.0 | 0.00 | 0.00 | 0.00 | 57 | 978.0 | |
| 20260502235004 | 6 | 0.0 | 0.0 | 0.00 | 0.00 | 0.00 | 57 | 978.0 | |
| 20260502234503 | 6 | 0.0 | 0.0 | 0.00 | 0.00 | 0.00 | 56 | 978.0 | |
| 20260502234003 | 6 | 0.0 | 0.0 | 0.00 | 0.00 | 0.00 | 56 | 978.0 | |
| 20260502233502 | 7 | 0.0 | 0.0 | 0.00 | 0.00 | 0.00 | 56 | 978.0 | |
| 20260502233007 | 7 | 0.0 | 0.0 | 0.00 | 0.00 | 0.00 | 55 | 978.0 | |
| 20260502232508 | 7 | 0.0 | 0.0 | 0.00 | 0.00 | 0.00 | 55 | 978.0 | |
| 20260502232005 | 7 | 0.0 | 0.0 | 0.00 | 0.00 | 0.00 | 55 | 978.0 | |
| 20260502231505 | 7 | 0.0 | 0.0 | 0.00 | 0.00 | 0.00 | 55 | 978.0 | |
| 20260502231004 | 7 | 0.0 | 0.0 | 0.00 | 0.00 | 0.00 | 55 | 978.0 | |
| 20260502230504 | 7 | 0.0 | 0.0 | 0.00 | 0.00 | 0.00 | 55 | 978.0 | |
| 20260502230007 | 7 | 0.0 | 0.0 | 0.00 | 0.00 | 0.00 | 55 | 978.0 | |
| 20260502225503 | 7 | 0.0 | 0.0 | 0.00 | 0.00 | 0.00 | 55 | 978.0 | |
| 20260502225002 | 7 | 0.0 | 0.0 | 0.00 | 0.00 | 0.00 | 54 | 978.0 | |
| 20260502224502 | 8 | 0.0 | 0.0 | 0.00 | 0.00 | 0.00 | 54 | 978.0 | |
| 20260502224006 | 8 | 0.0 | 0.0 | 0.00 | 0.00 | 0.00 | 53 | 978.0 | |
| 20260502223506 | 8 | 0.0 | 0.0 | 0.00 | 0.00 | 0.00 | 53 | 978.0 | |
| 20260502223006 | 8 | 0.0 | 0.0 | 0.00 | 0.00 | 0.00 | 53 | 978.0 | |
| 20260502222505 | 8 | 0.0 | 0.0 | 0.00 | 0.00 | 0.00 | 52 | 978.0 | |
| 20260502222004 | 8 | 0.0 | 0.0 | 0.00 | 0.00 | 0.00 | 52 | 978.0 | |
| 20260502221504 | 8 | 0.0 | 0.0 | 0.00 | 0.00 | 0.00 | 52 | 978.0 | |
| 20260502221003 | 8 | 0.0 | 0.0 | 0.00 | 0.00 | 0.00 | 52 | 978.0 | |
| 20260502220503 | 9 | 0.0 | 0.0 | 0.00 | 0.00 | 0.00 | 51 | 978.0 | |
| 20260502220007 | 9 | 0.0 | 0.0 | 0.00 | 0.00 | 0.00 | 51 | 978.0 | |
| 20260502215502 | 9 | 0.0 | 0.0 | 0.00 | 0.00 | 0.00 | 50 | 978.0 | |
| 20260502215006 | 9 | 0.0 | 0.0 | 0.00 | 0.00 | 0.00 | 49 | 978.0 | |
| 20260502214506 | 10 | 0.0 | 0.0 | 0.00 | 0.00 | 0.00 | 49 | 977.0 | |
| 20260502214005 | 10 | 0.0 | 0.0 | 0.00 | 0.00 | 0.00 | 48 | 977.0 | |
| 20260502213505 | 10 | 0.0 | 0.0 | 0.00 | 0.00 | 0.00 | 48 | 977.0 | |
| 20260502213004 | 10 | 0.0 | 0.0 | 0.00 | 0.00 | 0.00 | 48 | 977.0 | |
| 20260502212504 | 10 | 0.0 | 0.0 | 0.00 | 0.00 | 0.00 | 47 | 977.0 | |
| 20260502212004 | 10 | 0.0 | 0.0 | 0.00 | 0.00 | 0.00 | 47 | 977.0 | |
| 20260502211503 | 10 | 0.0 | 0.0 | 0.00 | 0.00 | 0.00 | 46 | 977.0 | |
| 20260502211002 | 11 | 0.0 | 0.0 | 0.00 | 0.00 | 0.00 | 46 | 977.0 | |
| 20260502210502 | 11 | 0.0 | 0.0 | 0.00 | 0.00 | 0.00 | 45 | 977.0 | |
| 20260502210010 | 11 | 0.0 | 0.0 | 0.00 | 0.00 | 0.00 | 45 | 977.0 | |
| 20260502205506 | 11 | 0.0 | 0.0 | 0.00 | 0.00 | 0.00 | 44 | 977.0 | |
| 20260502205005 | 11 | 0.0 | 0.0 | 0.00 | 0.00 | 0.00 | 44 | 977.0 | |
| 20260502204505 | 11 | 0.0 | 0.0 | 0.00 | 0.00 | 0.00 | 44 | 977.0 | |
| 20260502204004 | 11 | 0.0 | 0.0 | 0.00 | 0.00 | 0.00 | 44 | 977.0 | |
| 20260502203504 | 12 | 0.0 | 0.0 | 0.00 | 0.00 | 0.00 | 44 | 977.0 | |
| 20260502203004 | 12 | 0.0 | 0.0 | 0.00 | 0.00 | 0.00 | 43 | 977.0 | |
| 20260502202503 | 12 | 0.0 | 0.0 | 0.00 | 0.00 | 0.00 | 43 | 977.0 | |
| 20260502202005 | 12 | 0.0 | 0.0 | 0.00 | 0.00 | 0.00 | 42 | 977.0 | |
| 20260502201502 | 12 | 0.0 | 0.0 | 0.00 | 0.00 | 0.00 | 42 | 977.0 | |
| 20260502201007 | 12 | 0.0 | 0.0 | 0.00 | 0.00 | 0.00 | 41 | 977.0 | |
| 20260502200506 | 13 | 0.0 | 0.0 | 0.00 | 0.00 | 0.00 | 40 | 977.0 | |
| 20260502200009 | 13 | 0.0 | 0.0 | 0.00 | 0.00 | 0.00 | 40 | 977.0 | |
| 20260502195505 | 13 | 0.0 | 0.0 | 0.00 | 0.00 | 0.00 | 40 | 976.0 | |
| 20260502195005 | 13 | 0.0 | 0.0 | 0.00 | 0.00 | 0.00 | 39 | 976.0 | |
| 20260502194504 | 13 | 0.0 | 0.0 | 0.00 | 0.00 | 0.00 | 39 | 976.0 | |
| 20260502194003 | 13 | 0.0 | 0.0 | 0.00 | 0.00 | 0.00 | 38 | 976.0 | |
| 20260502193504 | 14 | 0.0 | 0.0 | 0.00 | 0.00 | 0.00 | 38 | 976.0 | |
| 20260502193003 | 14 | 0.0 | 0.0 | 0.00 | 0.00 | 0.00 | 38 | 976.0 | |
| 20260502192502 | 15 | 0.0 | 0.0 | 0.00 | 0.00 | 0.00 | 37 | 976.0 | |
| 20260502192006 | 15 | 0.0 | 0.0 | 0.00 | 0.00 | 0.00 | 37 | 976.0 | |
| 20260502191506 | 15 | 0.0 | 0.0 | 0.00 | 0.00 | 0.00 | 37 | 976.0 | |
| 20260502191005 | 15 | 0.0 | 0.0 | 0.00 | 0.00 | 0.00 | 36 | 976.0 | |
| 20260502190505 | 15 | 0.0 | 0.0 | 0.00 | 0.00 | 0.00 | 35 | 976.0 | |
| 20260502190009 | 16 | 0.0 | 0.0 | 0.00 | 0.00 | 0.00 | 34 | 976.0 | |
| 20260502185504 | 16 | 0.0 | 0.0 | 0.00 | 0.00 | 0.00 | 34 | 976.0 | |
| 20260502185003 | 16 | 0.0 | 0.0 | 0.00 | 0.00 | 0.00 | 33 | 976.0 | |
| 20260502184503 | 17 | 0.0 | 0.0 | 0.00 | 0.00 | 0.00 | 32 | 976.0 | |
| 20260502184002 | 17 | 0.0 | 0.0 | 0.00 | 0.00 | 0.00 | 32 | 975.0 | |
| 20260502183502 | 17 | 0.0 | 0.0 | 0.00 | 0.00 | 0.00 | 31 | 975.0 |